sensor_id;sensor_type;location;lat;lon;timestamp;P1;durP1;ratioP1;P2;durP2;ratioP2
24617;SDS011;12762;51.730;5.356;2022-08-24T00:01:17;20.50;;;15.30;;
24617;SDS011;12762;51.730;5.356;2022-08-24T00:03:44;16.37;;;12.53;;
24617;SDS011;12762;51.730;5.356;2022-08-24T00:06:13;16.67;;;11.07;;
24617;SDS011;12762;51.730;5.356;2022-08-24T00:08:45;19.63;;;13.83;;
24617;SDS011;12762;51.730;5.356;2022-08-24T00:11:13;17.03;;;11.20;;
24617;SDS011;12762;51.730;5.356;2022-08-24T00:13:40;8.90;;;7.93;;
24617;SDS011;12762;51.730;5.356;2022-08-24T00:16:08;13.33;;;9.30;;
24617;SDS011;12762;51.730;5.356;2022-08-24T00:18:35;17.47;;;13.53;;
24617;SDS011;12762;51.730;5.356;2022-08-24T00:21:03;19.73;;;14.53;;
24617;SDS011;12762;51.730;5.356;2022-08-24T00:23:30;18.27;;;13.90;;
24617;SDS011;12762;51.730;5.356;2022-08-24T00:25:57;17.33;;;14.67;;
24617;SDS011;12762;51.730;5.356;2022-08-24T00:28:24;21.97;;;16.07;;
24617;SDS011;12762;51.730;5.356;2022-08-24T00:30:51;21.90;;;16.00;;
24617;SDS011;12762;51.730;5.356;2022-08-24T00:33:18;22.33;;;16.60;;
24617;SDS011;12762;51.730;5.356;2022-08-24T00:35:45;16.67;;;12.20;;
24617;SDS011;12762;51.730;5.356;2022-08-24T00:38:12;21.93;;;16.07;;
24617;SDS011;12762;51.730;5.356;2022-08-24T00:40:40;23.70;;;17.87;;
24617;SDS011;12762;51.730;5.356;2022-08-24T00:43:09;26.13;;;20.57;;
24617;SDS011;12762;51.730;5.356;2022-08-24T00:45:40;17.20;;;11.77;;
24617;SDS011;12762;51.730;5.356;2022-08-24T00:48:11;20.87;;;15.70;;
24617;SDS011;12762;51.730;5.356;2022-08-24T00:50:44;20.47;;;15.27;;
24617;SDS011;12762;51.730;5.356;2022-08-24T00:53:28;18.40;;;13.80;;
24617;SDS011;12762;51.730;5.356;2022-08-24T00:56:13;19.87;;;14.70;;
24617;SDS011;12762;51.730;5.356;2022-08-24T00:58:59;19.90;;;14.13;;
24617;SDS011;12762;51.730;5.356;2022-08-24T01:01:30;24.53;;;17.20;;
24617;SDS011;12762;51.730;5.356;2022-08-24T01:04:00;23.53;;;16.90;;
24617;SDS011;12762;51.730;5.356;2022-08-24T01:06:27;24.33;;;17.10;;
24617;SDS011;12762;51.730;5.356;2022-08-24T01:08:54;16.23;;;11.07;;
24617;SDS011;12762;51.730;5.356;2022-08-24T01:11:25;19.83;;;14.17;;
24617;SDS011;12762;51.730;5.356;2022-08-24T01:13:59;22.83;;;15.60;;
24617;SDS011;12762;51.730;5.356;2022-08-24T01:16:28;26.03;;;19.17;;
24617;SDS011;12762;51.730;5.356;2022-08-24T01:19:17;14.67;;;11.53;;
24617;SDS011;12762;51.730;5.356;2022-08-24T01:25:05;12.63;;;7.43;;
24617;SDS011;12762;51.730;5.356;2022-08-24T01:27:33;17.13;;;12.40;;
24617;SDS011;12762;51.730;5.356;2022-08-24T01:30:03;16.60;;;12.53;;
24617;SDS011;12762;51.730;5.356;2022-08-24T01:32:32;21.23;;;16.60;;
24617;SDS011;12762;51.730;5.356;2022-08-24T01:34:59;23.70;;;16.17;;
24617;SDS011;12762;51.730;5.356;2022-08-24T01:37:26;18.20;;;13.57;;
24617;SDS011;12762;51.730;5.356;2022-08-24T01:39:55;24.03;;;16.90;;
24617;SDS011;12762;51.730;5.356;2022-08-24T01:42:24;13.13;;;10.57;;
24617;SDS011;12762;51.730;5.356;2022-08-24T01:44:52;19.00;;;13.70;;
24617;SDS011;12762;51.730;5.356;2022-08-24T01:47:19;28.10;;;19.93;;
24617;SDS011;12762;51.730;5.356;2022-08-24T01:49:46;30.33;;;20.50;;
24617;SDS011;12762;51.730;5.356;2022-08-24T01:52:16;22.27;;;15.10;;
24617;SDS011;12762;51.730;5.356;2022-08-24T01:54:45;15.50;;;12.07;;
24617;SDS011;12762;51.730;5.356;2022-08-24T01:57:14;23.37;;;15.87;;
24617;SDS011;12762;51.730;5.356;2022-08-24T01:59:42;15.27;;;11.23;;
24617;SDS011;12762;51.730;5.356;2022-08-24T02:02:16;14.03;;;11.13;;
24617;SDS011;12762;51.730;5.356;2022-08-24T02:04:46;19.80;;;13.40;;
24617;SDS011;12762;51.730;5.356;2022-08-24T02:07:16;35.47;;;23.20;;
24617;SDS011;12762;51.730;5.356;2022-08-24T02:09:43;25.17;;;17.70;;
24617;SDS011;12762;51.730;5.356;2022-08-24T02:12:10;20.03;;;15.03;;
24617;SDS011;12762;51.730;5.356;2022-08-24T02:14:37;23.33;;;16.13;;
24617;SDS011;12762;51.730;5.356;2022-08-24T02:17:06;20.57;;;14.30;;
24617;SDS011;12762;51.730;5.356;2022-08-24T02:19:34;12.33;;;9.33;;
24617;SDS011;12762;51.730;5.356;2022-08-24T02:22:01;16.13;;;11.77;;
24617;SDS011;12762;51.730;5.356;2022-08-24T02:24:28;25.93;;;19.00;;
24617;SDS011;12762;51.730;5.356;2022-08-24T02:26:56;22.03;;;15.30;;
24617;SDS011;12762;51.730;5.356;2022-08-24T02:29:23;27.20;;;21.03;;
24617;SDS011;12762;51.730;5.356;2022-08-24T02:31:50;27.27;;;19.03;;
24617;SDS011;12762;51.730;5.356;2022-08-24T02:34:17;14.97;;;10.70;;
24617;SDS011;12762;51.730;5.356;2022-08-24T02:36:44;19.00;;;12.30;;
24617;SDS011;12762;51.730;5.356;2022-08-24T02:39:11;19.40;;;14.23;;
24617;SDS011;12762;51.730;5.356;2022-08-24T02:41:38;22.50;;;15.57;;
24617;SDS011;12762;51.730;5.356;2022-08-24T02:44:05;23.40;;;14.80;;
24617;SDS011;12762;51.730;5.356;2022-08-24T02:46:32;30.07;;;20.73;;
24617;SDS011;12762;51.730;5.356;2022-08-24T02:48:59;30.53;;;21.63;;
24617;SDS011;12762;51.730;5.356;2022-08-24T02:51:37;27.93;;;20.43;;
24617;SDS011;12762;51.730;5.356;2022-08-24T02:54:10;30.63;;;20.97;;
24617;SDS011;12762;51.730;5.356;2022-08-24T02:56:42;33.00;;;23.23;;
24617;SDS011;12762;51.730;5.356;2022-08-24T02:59:09;37.33;;;23.13;;
24617;SDS011;12762;51.730;5.356;2022-08-24T03:01:37;29.80;;;22.63;;
24617;SDS011;12762;51.730;5.356;2022-08-24T03:04:04;27.30;;;20.13;;
24617;SDS011;12762;51.730;5.356;2022-08-24T03:06:31;24.80;;;15.63;;
24617;SDS011;12762;51.730;5.356;2022-08-24T03:08:58;30.73;;;20.63;;
24617;SDS011;12762;51.730;5.356;2022-08-24T03:11:25;27.20;;;19.37;;
24617;SDS011;12762;51.730;5.356;2022-08-24T03:13:56;21.23;;;15.40;;
24617;SDS011;12762;51.730;5.356;2022-08-24T03:16:25;25.50;;;17.67;;
24617;SDS011;12762;51.730;5.356;2022-08-24T03:18:52;30.40;;;21.67;;
24617;SDS011;12762;51.730;5.356;2022-08-24T03:21:20;21.10;;;16.37;;
24617;SDS011;12762;51.730;5.356;2022-08-24T03:23:47;23.00;;;15.83;;
24617;SDS011;12762;51.730;5.356;2022-08-24T03:26:13;18.50;;;14.17;;
24617;SDS011;12762;51.730;5.356;2022-08-24T03:28:40;16.13;;;12.00;;
24617;SDS011;12762;51.730;5.356;2022-08-24T03:31:10;26.17;;;18.53;;
24617;SDS011;12762;51.730;5.356;2022-08-24T03:33:37;21.50;;;16.20;;
24617;SDS011;12762;51.730;5.356;2022-08-24T03:36:07;19.60;;;15.07;;
24617;SDS011;12762;51.730;5.356;2022-08-24T03:38:39;20.93;;;13.97;;
24617;SDS011;12762;51.730;5.356;2022-08-24T03:41:06;24.73;;;17.97;;
24617;SDS011;12762;51.730;5.356;2022-08-24T03:43:33;23.50;;;17.20;;
24617;SDS011;12762;51.730;5.356;2022-08-24T03:46:15;23.33;;;17.50;;
24617;SDS011;12762;51.730;5.356;2022-08-24T03:48:46;25.67;;;16.87;;
24617;SDS011;12762;51.730;5.356;2022-08-24T03:51:14;26.90;;;18.07;;
24617;SDS011;12762;51.730;5.356;2022-08-24T03:53:43;13.90;;;10.23;;
24617;SDS011;12762;51.730;5.356;2022-08-24T03:56:11;18.77;;;13.00;;
24617;SDS011;12762;51.730;5.356;2022-08-24T03:58:39;22.97;;;16.40;;
24617;SDS011;12762;51.730;5.356;2022-08-24T04:01:07;23.97;;;16.47;;
24617;SDS011;12762;51.730;5.356;2022-08-24T04:03:38;28.43;;;20.13;;
24617;SDS011;12762;51.730;5.356;2022-08-24T04:06:07;24.00;;;15.97;;
24617;SDS011;12762;51.730;5.356;2022-08-24T04:08:37;26.57;;;18.60;;
24617;SDS011;12762;51.730;5.356;2022-08-24T04:11:09;27.50;;;19.40;;
24617;SDS011;12762;51.730;5.356;2022-08-24T04:13:36;22.53;;;14.73;;
24617;SDS011;12762;51.730;5.356;2022-08-24T04:16:04;16.83;;;12.50;;
24617;SDS011;12762;51.730;5.356;2022-08-24T04:18:35;19.23;;;13.17;;
24617;SDS011;12762;51.730;5.356;2022-08-24T04:21:02;17.13;;;12.80;;
24617;SDS011;12762;51.730;5.356;2022-08-24T04:23:30;20.77;;;14.17;;
24617;SDS011;12762;51.730;5.356;2022-08-24T04:26:12;25.57;;;18.17;;
24617;SDS011;12762;51.730;5.356;2022-08-24T04:28:40;18.13;;;13.53;;
24617;SDS011;12762;51.730;5.356;2022-08-24T04:31:07;23.63;;;17.63;;
24617;SDS011;12762;51.730;5.356;2022-08-24T04:33:34;16.33;;;12.20;;
24617;SDS011;12762;51.730;5.356;2022-08-24T04:36:04;24.60;;;17.13;;
24617;SDS011;12762;51.730;5.356;2022-08-24T04:38:33;22.30;;;17.00;;
24617;SDS011;12762;51.730;5.356;2022-08-24T04:41:03;25.67;;;19.37;;
24617;SDS011;12762;51.730;5.356;2022-08-24T04:43:32;25.07;;;17.90;;
24617;SDS011;12762;51.730;5.356;2022-08-24T04:46:05;29.50;;;20.57;;
24617;SDS011;12762;51.730;5.356;2022-08-24T04:48:33;23.37;;;15.17;;
24617;SDS011;12762;51.730;5.356;2022-08-24T04:51:04;34.20;;;22.27;;
24617;SDS011;12762;51.730;5.356;2022-08-24T04:53:38;29.47;;;18.87;;
24617;SDS011;12762;51.730;5.356;2022-08-24T04:56:13;23.47;;;17.20;;
24617;SDS011;12762;51.730;5.356;2022-08-24T04:58:45;26.57;;;18.60;;
24617;SDS011;12762;51.730;5.356;2022-08-24T05:01:13;24.07;;;15.90;;
24617;SDS011;12762;51.730;5.356;2022-08-24T05:03:45;28.80;;;19.60;;
24617;SDS011;12762;51.730;5.356;2022-08-24T05:06:15;26.00;;;20.23;;
24617;SDS011;12762;51.730;5.356;2022-08-24T05:08:44;21.33;;;15.17;;
24617;SDS011;12762;51.730;5.356;2022-08-24T05:11:13;17.03;;;12.90;;
24617;SDS011;12762;51.730;5.356;2022-08-24T05:13:42;30.57;;;21.20;;
24617;SDS011;12762;51.730;5.356;2022-08-24T05:16:11;33.80;;;21.60;;
24617;SDS011;12762;51.730;5.356;2022-08-24T05:18:39;22.17;;;16.43;;
24617;SDS011;12762;51.730;5.356;2022-08-24T05:21:08;23.93;;;18.53;;
24617;SDS011;12762;51.730;5.356;2022-08-24T05:23:36;31.13;;;23.03;;
24617;SDS011;12762;51.730;5.356;2022-08-24T05:26:09;25.97;;;19.03;;
24617;SDS011;12762;51.730;5.356;2022-08-24T05:28:39;27.90;;;17.47;;
24617;SDS011;12762;51.730;5.356;2022-08-24T05:31:10;26.17;;;19.53;;
24617;SDS011;12762;51.730;5.356;2022-08-24T05:33:42;22.77;;;17.27;;
24617;SDS011;12762;51.730;5.356;2022-08-24T05:36:23;24.50;;;17.53;;
24617;SDS011;12762;51.730;5.356;2022-08-24T05:39:10;21.53;;;14.93;;
24617;SDS011;12762;51.730;5.356;2022-08-24T05:41:38;24.97;;;19.27;;
24617;SDS011;12762;51.730;5.356;2022-08-24T05:44:10;28.73;;;21.30;;
24617;SDS011;12762;51.730;5.356;2022-08-24T05:46:42;28.40;;;22.00;;
24617;SDS011;12762;51.730;5.356;2022-08-24T05:49:09;28.50;;;21.07;;
24617;SDS011;12762;51.730;5.356;2022-08-24T05:51:37;30.87;;;24.63;;
24617;SDS011;12762;51.730;5.356;2022-08-24T05:54:05;38.57;;;28.13;;
24617;SDS011;12762;51.730;5.356;2022-08-24T05:56:32;38.23;;;29.23;;
24617;SDS011;12762;51.730;5.356;2022-08-24T05:58:59;47.23;;;38.40;;
24617;SDS011;12762;51.730;5.356;2022-08-24T06:01:26;47.37;;;36.03;;
24617;SDS011;12762;51.730;5.356;2022-08-24T06:03:54;41.57;;;33.00;;
24617;SDS011;12762;51.730;5.356;2022-08-24T06:06:25;52.30;;;40.67;;
24617;SDS011;12762;51.730;5.356;2022-08-24T06:08:55;52.93;;;43.30;;
24617;SDS011;12762;51.730;5.356;2022-08-24T06:11:25;51.50;;;40.80;;
24617;SDS011;12762;51.730;5.356;2022-08-24T06:14:02;58.23;;;44.20;;
24617;SDS011;12762;51.730;5.356;2022-08-24T06:16:33;60.57;;;45.43;;
24617;SDS011;12762;51.730;5.356;2022-08-24T06:19:02;62.63;;;46.57;;
24617;SDS011;12762;51.730;5.356;2022-08-24T06:21:30;67.77;;;47.57;;
24617;SDS011;12762;51.730;5.356;2022-08-24T06:23:58;69.10;;;52.63;;
24617;SDS011;12762;51.730;5.356;2022-08-24T06:26:26;65.57;;;47.80;;
24617;SDS011;12762;51.730;5.356;2022-08-24T06:29:16;64.80;;;45.77;;
24617;SDS011;12762;51.730;5.356;2022-08-24T06:31:45;62.03;;;45.13;;
24617;SDS011;12762;51.730;5.356;2022-08-24T06:34:19;61.10;;;43.67;;
24617;SDS011;12762;51.730;5.356;2022-08-24T06:36:46;67.47;;;48.53;;
24617;SDS011;12762;51.730;5.356;2022-08-24T06:39:13;62.80;;;45.97;;
24617;SDS011;12762;51.730;5.356;2022-08-24T06:41:41;63.30;;;46.07;;
24617;SDS011;12762;51.730;5.356;2022-08-24T06:44:08;58.27;;;43.80;;
24617;SDS011;12762;51.730;5.356;2022-08-24T06:46:35;57.23;;;41.37;;
24617;SDS011;12762;51.730;5.356;2022-08-24T06:49:02;59.50;;;40.67;;
24617;SDS011;12762;51.730;5.356;2022-08-24T06:51:29;53.77;;;40.37;;
24617;SDS011;12762;51.730;5.356;2022-08-24T06:53:57;55.93;;;40.20;;
24617;SDS011;12762;51.730;5.356;2022-08-24T06:56:25;54.23;;;40.13;;
24617;SDS011;12762;51.730;5.356;2022-08-24T06:58:51;51.57;;;38.23;;
24617;SDS011;12762;51.730;5.356;2022-08-24T07:01:21;51.07;;;38.87;;
24617;SDS011;12762;51.730;5.356;2022-08-24T07:03:51;58.63;;;39.50;;
24617;SDS011;12762;51.730;5.356;2022-08-24T07:06:19;44.93;;;35.93;;
24617;SDS011;12762;51.730;5.356;2022-08-24T07:08:48;50.50;;;37.60;;
24617;SDS011;12762;51.730;5.356;2022-08-24T07:11:17;48.83;;;33.87;;
24617;SDS011;12762;51.730;5.356;2022-08-24T07:13:45;56.50;;;40.20;;
24617;SDS011;12762;51.730;5.356;2022-08-24T07:16:14;46.67;;;37.80;;
24617;SDS011;12762;51.730;5.356;2022-08-24T07:18:44;46.20;;;35.70;;
24617;SDS011;12762;51.730;5.356;2022-08-24T07:21:15;45.30;;;32.03;;
24617;SDS011;12762;51.730;5.356;2022-08-24T07:23:47;40.70;;;32.10;;
24617;SDS011;12762;51.730;5.356;2022-08-24T07:26:16;34.33;;;26.97;;
24617;SDS011;12762;51.730;5.356;2022-08-24T07:28:55;38.73;;;27.90;;
24617;SDS011;12762;51.730;5.356;2022-08-24T07:31:34;29.50;;;22.63;;
24617;SDS011;12762;51.730;5.356;2022-08-24T07:34:04;25.47;;;17.40;;
24617;SDS011;12762;51.730;5.356;2022-08-24T07:36:33;23.40;;;17.93;;
24617;SDS011;12762;51.730;5.356;2022-08-24T07:39:08;23.63;;;17.92;;
24617;SDS011;12762;51.730;5.356;2022-08-24T07:41:40;21.15;;;16.25;;
24617;SDS011;12762;51.730;5.356;2022-08-24T07:44:28;17.13;;;12.38;;
24617;SDS011;12762;51.730;5.356;2022-08-24T07:46:57;18.50;;;13.43;;
24617;SDS011;12762;51.730;5.356;2022-08-24T07:49:46;18.13;;;12.38;;
24617;SDS011;12762;51.730;5.356;2022-08-24T07:52:15;17.42;;;10.65;;
24617;SDS011;12762;51.730;5.356;2022-08-24T07:54:42;15.50;;;10.98;;
24617;SDS011;12762;51.730;5.356;2022-08-24T07:57:09;14.15;;;9.90;;
24617;SDS011;12762;51.730;5.356;2022-08-24T07:59:36;18.13;;;10.63;;
24617;SDS011;12762;51.730;5.356;2022-08-24T08:02:03;16.98;;;10.32;;
24617;SDS011;12762;51.730;5.356;2022-08-24T08:04:30;16.58;;;9.90;;
24617;SDS011;12762;51.730;5.356;2022-08-24T08:06:57;14.75;;;10.93;;
24617;SDS011;12762;51.730;5.356;2022-08-24T08:09:26;19.23;;;10.57;;
24617;SDS011;12762;51.730;5.356;2022-08-24T08:11:53;14.98;;;9.32;;
24617;SDS011;12762;51.730;5.356;2022-08-24T08:14:20;15.02;;;8.20;;
24617;SDS011;12762;51.730;5.356;2022-08-24T08:16:47;15.90;;;8.75;;
24617;SDS011;12762;51.730;5.356;2022-08-24T08:19:15;11.60;;;7.57;;
24617;SDS011;12762;51.730;5.356;2022-08-24T08:21:49;12.60;;;7.22;;
24617;SDS011;12762;51.730;5.356;2022-08-24T08:24:37;16.20;;;7.60;;
24617;SDS011;12762;51.730;5.356;2022-08-24T08:27:05;11.50;;;7.50;;
24617;SDS011;12762;51.730;5.356;2022-08-24T08:29:32;13.38;;;7.75;;
24617;SDS011;12762;51.730;5.356;2022-08-24T08:32:00;12.35;;;7.80;;
24617;SDS011;12762;51.730;5.356;2022-08-24T08:34:27;14.07;;;7.85;;
24617;SDS011;12762;51.730;5.356;2022-08-24T08:36:57;11.55;;;6.80;;
24617;SDS011;12762;51.730;5.356;2022-08-24T08:39:25;11.75;;;7.57;;
24617;SDS011;12762;51.730;5.356;2022-08-24T08:45:32;10.65;;;8.13;;
24617;SDS011;12762;51.730;5.356;2022-08-24T08:53:28;12.82;;;8.07;;
24617;SDS011;12762;51.730;5.356;2022-08-24T09:00:23;11.18;;;6.38;;
24617;SDS011;12762;51.730;5.356;2022-08-24T09:11:01;8.07;;;5.55;;
24617;SDS011;12762;51.730;5.356;2022-08-24T09:17:12;11.20;;;5.57;;
24617;SDS011;12762;51.730;5.356;2022-08-24T09:22:23;10.38;;;5.13;;
24617;SDS011;12762;51.730;5.356;2022-08-24T09:35:17;9.00;;;5.18;;
24617;SDS011;12762;51.730;5.356;2022-08-24T09:37:59;6.05;;;4.00;;
24617;SDS011;12762;51.730;5.356;2022-08-24T09:40:38;5.75;;;3.60;;
24617;SDS011;12762;51.730;5.356;2022-08-24T09:46:02;6.10;;;3.25;;
24617;SDS011;12762;51.730;5.356;2022-08-24T09:54:49;5.43;;;3.33;;
24617;SDS011;12762;51.730;5.356;2022-08-24T10:00:28;6.70;;;3.72;;
24617;SDS011;12762;51.730;5.356;2022-08-24T10:03:05;7.15;;;3.40;;
24617;SDS011;12762;51.730;5.356;2022-08-24T10:12:08;2.35;;;1.55;;
24617;SDS011;12762;51.730;5.356;2022-08-24T10:20:28;4.88;;;1.90;;
24617;SDS011;12762;51.730;5.356;2022-08-24T10:29:26;3.67;;;1.80;;
24617;SDS011;12762;51.730;5.356;2022-08-24T10:35:01;3.83;;;1.50;;
24617;SDS011;12762;51.730;5.356;2022-08-24T10:40:52;3.17;;;1.88;;
24617;SDS011;12762;51.730;5.356;2022-08-24T10:46:29;5.00;;;1.60;;
24617;SDS011;12762;51.730;5.356;2022-08-24T10:55:15;4.07;;;1.60;;
24617;SDS011;12762;51.730;5.356;2022-08-24T11:00:36;5.60;;;1.90;;
24617;SDS011;12762;51.730;5.356;2022-08-24T11:03:14;3.65;;;1.88;;
24617;SDS011;12762;51.730;5.356;2022-08-24T11:05:54;3.53;;;2.17;;
24617;SDS011;12762;51.730;5.356;2022-08-24T11:11:03;1.98;;;1.40;;
24617;SDS011;12762;51.730;5.356;2022-08-24T11:13:33;3.30;;;1.45;;
24617;SDS011;12762;51.730;5.356;2022-08-24T11:16:03;3.33;;;1.60;;
24617;SDS011;12762;51.730;5.356;2022-08-24T11:26:54;2.55;;;1.70;;
24617;SDS011;12762;51.730;5.356;2022-08-24T11:29:29;3.80;;;2.00;;
24617;SDS011;12762;51.730;5.356;2022-08-24T11:32:28;2.03;;;1.83;;
24617;SDS011;12762;51.730;5.356;2022-08-24T11:37:56;2.80;;;1.30;;
24617;SDS011;12762;51.730;5.356;2022-08-24T11:40:29;1.70;;;1.33;;
24617;SDS011;12762;51.730;5.356;2022-08-24T11:59:46;1.65;;;1.15;;
24617;SDS011;12762;51.730;5.356;2022-08-24T12:02:41;3.38;;;1.30;;
24617;SDS011;12762;51.730;5.356;2022-08-24T12:05:24;2.60;;;1.38;;
24617;SDS011;12762;51.730;5.356;2022-08-24T12:10:48;2.25;;;1.33;;
24617;SDS011;12762;51.730;5.356;2022-08-24T12:13:31;1.85;;;1.50;;
24617;SDS011;12762;51.730;5.356;2022-08-24T12:19:23;2.67;;;1.60;;
24617;SDS011;12762;51.730;5.356;2022-08-24T12:21:58;1.30;;;1.05;;
24617;SDS011;12762;51.730;5.356;2022-08-24T12:29:48;1.70;;;1.25;;
24617;SDS011;12762;51.730;5.356;2022-08-24T12:32:23;2.00;;;0.90;;
24617;SDS011;12762;51.730;5.356;2022-08-24T12:35:01;1.30;;;1.00;;
24617;SDS011;12762;51.730;5.356;2022-08-24T12:37:30;3.90;;;1.55;;
24617;SDS011;12762;51.730;5.356;2022-08-24T12:40:17;2.50;;;0.93;;
24617;SDS011;12762;51.730;5.356;2022-08-24T12:43:11;1.10;;;1.00;;
24617;SDS011;12762;51.730;5.356;2022-08-24T12:45:48;1.20;;;0.50;;
24617;SDS011;12762;51.730;5.356;2022-08-24T12:48:20;2.63;;;0.80;;
24617;SDS011;12762;51.730;5.356;2022-08-24T12:51:01;1.88;;;0.80;;
24617;SDS011;12762;51.730;5.356;2022-08-24T13:00:04;2.10;;;0.90;;
24617;SDS011;12762;51.730;5.356;2022-08-24T13:02:41;1.77;;;0.57;;
24617;SDS011;12762;51.730;5.356;2022-08-24T13:05:15;3.08;;;0.80;;
24617;SDS011;12762;51.730;5.356;2022-08-24T13:07:44;1.95;;;1.00;;
24617;SDS011;12762;51.730;5.356;2022-08-24T13:10:15;1.23;;;0.80;;
24617;SDS011;12762;51.730;5.356;2022-08-24T13:30:54;2.10;;;1.02;;
24617;SDS011;12762;51.730;5.356;2022-08-24T13:39:14;3.22;;;1.50;;
24617;SDS011;12762;51.730;5.356;2022-08-24T13:50:29;2.25;;;1.20;;
24617;SDS011;12762;51.730;5.356;2022-08-24T13:53:05;2.05;;;1.30;;
24617;SDS011;12762;51.730;5.356;2022-08-24T14:07:05;4.38;;;1.30;;
24617;SDS011;12762;51.730;5.356;2022-08-24T14:09:39;4.95;;;1.27;;
24617;SDS011;12762;51.730;5.356;2022-08-24T14:15:43;2.95;;;1.23;;
24617;SDS011;12762;51.730;5.356;2022-08-24T14:17:49;3.92;;;1.30;;
24617;SDS011;12762;51.730;5.356;2022-08-24T14:32:27;3.90;;;1.50;;
24617;SDS011;12762;51.730;5.356;2022-08-24T14:34:41;3.35;;;1.35;;
24617;SDS011;12762;51.730;5.356;2022-08-24T14:37:22;8.48;;;1.60;;
24617;SDS011;12762;51.730;5.356;2022-08-24T14:46:10;3.65;;;1.80;;
24617;SDS011;12762;51.730;5.356;2022-08-24T14:54:23;3.38;;;1.40;;
24617;SDS011;12762;51.730;5.356;2022-08-24T14:57:16;3.15;;;1.42;;
24617;SDS011;12762;51.730;5.356;2022-08-24T15:02:45;2.35;;;1.30;;
24617;SDS011;12762;51.730;5.356;2022-08-24T15:08:04;1.40;;;1.30;;
24617;SDS011;12762;51.730;5.356;2022-08-24T15:30:00;2.05;;;1.60;;
24617;SDS011;12762;51.730;5.356;2022-08-24T15:32:42;4.15;;;1.42;;
24617;SDS011;12762;51.730;5.356;2022-08-24T15:35:21;2.50;;;1.73;;
24617;SDS011;12762;51.730;5.356;2022-08-24T15:37:48;4.30;;;1.60;;
24617;SDS011;12762;51.730;5.356;2022-08-24T15:40:16;3.25;;;1.83;;
24617;SDS011;12762;51.730;5.356;2022-08-24T15:42:47;2.47;;;1.77;;
24617;SDS011;12762;51.730;5.356;2022-08-24T15:45:16;5.07;;;2.28;;
24617;SDS011;12762;51.730;5.356;2022-08-24T15:47:45;7.20;;;2.55;;
24617;SDS011;12762;51.730;5.356;2022-08-24T15:50:29;6.80;;;3.05;;
24617;SDS011;12762;51.730;5.356;2022-08-24T15:55:32;3.97;;;1.40;;
24617;SDS011;12762;51.730;5.356;2022-08-24T16:03:58;2.38;;;1.50;;
24617;SDS011;12762;51.730;5.356;2022-08-24T16:14:31;4.10;;;1.92;;
24617;SDS011;12762;51.730;5.356;2022-08-24T16:19:54;5.20;;;2.20;;
24617;SDS011;12762;51.730;5.356;2022-08-24T16:22:25;4.63;;;2.38;;
24617;SDS011;12762;51.730;5.356;2022-08-24T16:25:09;6.32;;;2.15;;
24617;SDS011;12762;51.730;5.356;2022-08-24T16:27:57;4.93;;;2.40;;
24617;SDS011;12762;51.730;5.356;2022-08-24T16:35:58;4.72;;;2.20;;
24617;SDS011;12762;51.730;5.356;2022-08-24T16:38:29;5.75;;;2.53;;
24617;SDS011;12762;51.730;5.356;2022-08-24T16:40:57;4.97;;;2.42;;
24617;SDS011;12762;51.730;5.356;2022-08-24T16:43:29;3.90;;;2.45;;
24617;SDS011;12762;51.730;5.356;2022-08-24T16:45:57;6.40;;;2.30;;
24617;SDS011;12762;51.730;5.356;2022-08-24T16:48:25;6.47;;;2.97;;
24617;SDS011;12762;51.730;5.356;2022-08-24T16:50:53;5.22;;;2.45;;
24617;SDS011;12762;51.730;5.356;2022-08-24T16:53:21;10.60;;;3.53;;
24617;SDS011;12762;51.730;5.356;2022-08-24T16:55:49;4.53;;;2.45;;
24617;SDS011;12762;51.730;5.356;2022-08-24T16:58:17;7.38;;;2.97;;
24617;SDS011;12762;51.730;5.356;2022-08-24T17:00:45;5.75;;;3.22;;
24617;SDS011;12762;51.730;5.356;2022-08-24T17:03:12;6.90;;;3.00;;
24617;SDS011;12762;51.730;5.356;2022-08-24T17:05:40;8.00;;;3.78;;
24617;SDS011;12762;51.730;5.356;2022-08-24T17:08:08;8.35;;;4.30;;
24617;SDS011;12762;51.730;5.356;2022-08-24T17:10:36;7.70;;;3.55;;
24617;SDS011;12762;51.730;5.356;2022-08-24T17:13:03;8.13;;;3.90;;
24617;SDS011;12762;51.730;5.356;2022-08-24T17:15:30;4.10;;;2.50;;
24617;SDS011;12762;51.730;5.356;2022-08-24T17:17:59;4.30;;;2.60;;
24617;SDS011;12762;51.730;5.356;2022-08-24T17:20:30;5.07;;;2.47;;
24617;SDS011;12762;51.730;5.356;2022-08-24T17:22:57;6.78;;;3.08;;
24617;SDS011;12762;51.730;5.356;2022-08-24T17:25:24;8.68;;;3.47;;
24617;SDS011;12762;51.730;5.356;2022-08-24T17:27:57;8.48;;;3.50;;
24617;SDS011;12762;51.730;5.356;2022-08-24T17:30:26;7.65;;;3.08;;
24617;SDS011;12762;51.730;5.356;2022-08-24T17:32:56;10.45;;;2.90;;
24617;SDS011;12762;51.730;5.356;2022-08-24T17:35:24;4.20;;;2.13;;
24617;SDS011;12762;51.730;5.356;2022-08-24T17:37:54;4.07;;;2.20;;
24617;SDS011;12762;51.730;5.356;2022-08-24T17:40:23;4.35;;;2.20;;
24617;SDS011;12762;51.730;5.356;2022-08-24T17:42:50;2.88;;;1.90;;
24617;SDS011;12762;51.730;5.356;2022-08-24T17:45:18;4.78;;;2.22;;
24617;SDS011;12762;51.730;5.356;2022-08-24T17:47:48;6.20;;;2.13;;
24617;SDS011;12762;51.730;5.356;2022-08-24T17:50:16;4.10;;;1.98;;
24617;SDS011;12762;51.730;5.356;2022-08-24T17:52:44;2.72;;;1.77;;
24617;SDS011;12762;51.730;5.356;2022-08-24T17:55:12;3.85;;;1.90;;
24617;SDS011;12762;51.730;5.356;2022-08-24T17:57:40;4.88;;;1.80;;
24617;SDS011;12762;51.730;5.356;2022-08-24T18:00:14;3.90;;;1.80;;
24617;SDS011;12762;51.730;5.356;2022-08-24T18:02:41;4.18;;;1.48;;
24617;SDS011;12762;51.730;5.356;2022-08-24T18:05:08;3.08;;;1.65;;
24617;SDS011;12762;51.730;5.356;2022-08-24T18:07:37;6.40;;;2.60;;
24617;SDS011;12762;51.730;5.356;2022-08-24T18:10:20;6.55;;;2.28;;
24617;SDS011;12762;51.730;5.356;2022-08-24T18:12:53;6.30;;;2.60;;
24617;SDS011;12762;51.730;5.356;2022-08-24T18:15:23;5.95;;;2.30;;
24617;SDS011;12762;51.730;5.356;2022-08-24T18:18:02;5.05;;;2.17;;
24617;SDS011;12762;51.730;5.356;2022-08-24T18:20:35;5.00;;;2.05;;
24617;SDS011;12762;51.730;5.356;2022-08-24T18:23:03;3.65;;;1.98;;
24617;SDS011;12762;51.730;5.356;2022-08-24T18:25:38;5.38;;;2.15;;
24617;SDS011;12762;51.730;5.356;2022-08-24T18:28:08;5.85;;;2.03;;
24617;SDS011;12762;51.730;5.356;2022-08-24T18:30:36;3.70;;;2.17;;
24617;SDS011;12762;51.730;5.356;2022-08-24T18:33:06;3.15;;;1.70;;
24617;SDS011;12762;51.730;5.356;2022-08-24T18:35:33;6.93;;;2.00;;
24617;SDS011;12762;51.730;5.356;2022-08-24T18:38:00;4.35;;;1.50;;
24617;SDS011;12762;51.730;5.356;2022-08-24T18:40:27;3.35;;;2.00;;
24617;SDS011;12762;51.730;5.356;2022-08-24T18:42:58;5.22;;;1.98;;
24617;SDS011;12762;51.730;5.356;2022-08-24T18:45:27;2.55;;;1.60;;
24617;SDS011;12762;51.730;5.356;2022-08-24T18:47:56;7.47;;;2.13;;
24617;SDS011;12762;51.730;5.356;2022-08-24T18:50:23;4.95;;;2.20;;
24617;SDS011;12762;51.730;5.356;2022-08-24T18:52:50;2.80;;;1.70;;
24617;SDS011;12762;51.730;5.356;2022-08-24T18:55:17;2.30;;;1.73;;
24617;SDS011;12762;51.730;5.356;2022-08-24T18:57:44;4.35;;;2.08;;
24617;SDS011;12762;51.730;5.356;2022-08-24T19:00:11;4.45;;;2.10;;
24617;SDS011;12762;51.730;5.356;2022-08-24T19:02:38;2.58;;;2.08;;
24617;SDS011;12762;51.730;5.356;2022-08-24T19:05:13;3.92;;;2.17;;
24617;SDS011;12762;51.730;5.356;2022-08-24T19:07:45;4.28;;;2.15;;
24617;SDS011;12762;51.730;5.356;2022-08-24T19:10:14;4.35;;;2.10;;
24617;SDS011;12762;51.730;5.356;2022-08-24T19:12:44;3.72;;;2.00;;
24617;SDS011;12762;51.730;5.356;2022-08-24T19:15:15;3.88;;;2.42;;